createdAt,value
2023-04-30T00:00:18.045Z,12.87
2023-04-30T00:02:46.094Z,12.82
2023-04-30T00:05:14.300Z,12.79
2023-04-30T00:07:43.660Z,12.74
2023-04-30T00:10:12.436Z,12.73
2023-04-30T00:12:40.433Z,12.68
2023-04-30T00:15:09.016Z,12.63
2023-04-30T00:17:36.931Z,12.61
2023-04-30T00:20:05.303Z,12.59
2023-04-30T00:22:34.736Z,12.56
2023-04-30T00:25:03.064Z,12.51
2023-04-30T00:27:31.703Z,12.50
2023-04-30T00:30:00.183Z,12.46
2023-04-30T00:32:28.178Z,12.40
2023-04-30T00:34:56.097Z,12.38
2023-04-30T00:37:24.005Z,12.34
2023-04-30T00:39:52.149Z,12.29
2023-04-30T00:42:20.265Z,12.29
2023-04-30T00:44:48.183Z,12.25
2023-04-30T00:47:16.146Z,12.19
2023-04-30T00:49:44.000Z,12.17
2023-04-30T00:52:11.976Z,12.14
2023-04-30T00:54:40.024Z,12.12
2023-04-30T00:57:11.027Z,12.11
2023-04-30T00:59:40.265Z,12.05
2023-04-30T01:02:08.761Z,12.03
2023-04-30T01:04:37.417Z,11.99
2023-04-30T01:07:05.648Z,11.97
2023-04-30T01:09:34.253Z,11.92
2023-04-30T01:12:14.807Z,11.88
2023-04-30T01:14:42.842Z,11.85
2023-04-30T01:17:22.609Z,11.83
2023-04-30T01:19:51.074Z,11.76
2023-04-30T01:22:27.894Z,11.72
2023-04-30T01:25:16.941Z,11.66
2023-04-30T01:28:04.772Z,11.64
2023-04-30T01:30:33.447Z,11.61
2023-04-30T01:33:01.733Z,11.56
2023-04-30T01:36:04.879Z,11.51
2023-04-30T01:39:04.948Z,11.47
2023-04-30T01:41:32.778Z,11.41
2023-04-30T01:44:45.479Z,11.38
2023-04-30T01:47:42.692Z,11.37
2023-04-30T01:50:14.336Z,11.31
2023-04-30T01:52:48.449Z,11.30
2023-04-30T01:55:26.151Z,11.27
2023-04-30T01:58:03.313Z,11.24
2023-04-30T02:00:34.429Z,11.20
2023-04-30T02:03:02.712Z,11.17
2023-04-30T02:05:30.760Z,11.15
2023-04-30T02:07:58.688Z,11.14
2023-04-30T02:10:28.209Z,11.12
2023-04-30T02:12:56.244Z,11.12
2023-04-30T02:15:24.295Z,11.13
2023-04-30T02:17:52.608Z,11.14
2023-04-30T02:20:20.692Z,11.17
2023-04-30T02:22:48.634Z,11.21
2023-04-30T02:25:16.663Z,11.22
2023-04-30T02:27:44.596Z,11.26
2023-04-30T02:30:12.652Z,11.28
2023-04-30T02:32:40.680Z,11.31
2023-04-30T02:35:08.912Z,11.31
2023-04-30T02:37:36.859Z,11.37
2023-04-30T02:40:05.065Z,11.40
2023-04-30T02:42:33.107Z,11.43
2023-04-30T02:45:01.030Z,11.45
2023-04-30T02:47:28.990Z,11.48
2023-04-30T02:49:57.266Z,11.50
2023-04-30T02:52:25.379Z,11.51
2023-04-30T02:54:53.315Z,11.57
2023-04-30T02:57:21.204Z,11.59
2023-04-30T02:59:49.187Z,11.64
2023-04-30T03:02:17.185Z,11.67
2023-04-30T03:04:45.077Z,11.70
2023-04-30T03:07:12.909Z,11.71
2023-04-30T03:09:40.794Z,11.72
2023-04-30T03:12:08.827Z,11.75
2023-04-30T03:14:36.774Z,11.73
2023-04-30T03:17:04.728Z,11.73
2023-04-30T03:19:33.089Z,11.72
2023-04-30T03:22:01.162Z,11.75
2023-04-30T03:24:29.155Z,11.76
2023-04-30T03:26:57.082Z,11.77
2023-04-30T03:29:25.026Z,11.78
2023-04-30T03:31:53.708Z,11.77
2023-04-30T03:34:21.725Z,11.77
2023-04-30T03:36:49.596Z,11.77
2023-04-30T03:39:17.528Z,11.78
2023-04-30T03:41:45.498Z,11.79
2023-04-30T03:44:17.013Z,11.77
2023-04-30T03:46:45.408Z,11.75
2023-04-30T03:49:13.403Z,11.69
2023-04-30T03:51:43.101Z,11.69
2023-04-30T03:54:11.604Z,11.64
2023-04-30T03:56:39.680Z,11.62
2023-04-30T03:59:07.682Z,11.60
2023-04-30T04:01:35.577Z,11.61
2023-04-30T04:04:03.799Z,11.59
2023-04-30T04:06:32.120Z,11.56
2023-04-30T04:09:00.135Z,11.55
2023-04-30T04:11:28.059Z,11.54
2023-04-30T04:13:57.038Z,11.54
2023-04-30T04:16:25.012Z,11.54
2023-04-30T04:18:52.968Z,11.55
2023-04-30T04:21:22.891Z,11.54
2023-04-30T04:23:51.043Z,11.55
2023-04-30T04:26:21.017Z,11.56
2023-04-30T04:28:49.478Z,11.55
2023-04-30T04:31:18.007Z,11.57
2023-04-30T04:33:46.045Z,11.55
2023-04-30T04:36:13.961Z,11.51
2023-04-30T04:38:42.581Z,11.51
2023-04-30T04:41:10.529Z,11.52
2023-04-30T04:43:38.893Z,11.50
2023-04-30T04:46:06.897Z,11.51
2023-04-30T04:48:34.829Z,11.53
2023-04-30T04:51:02.848Z,11.53
2023-04-30T04:53:31.775Z,11.53
2023-04-30T04:56:00.807Z,11.52
2023-04-30T04:58:29.593Z,11.50
2023-04-30T05:00:58.690Z,11.50
2023-04-30T05:03:26.797Z,11.48
2023-04-30T05:05:54.772Z,11.48
2023-04-30T05:08:22.908Z,11.46
2023-04-30T05:10:50.786Z,11.46
2023-04-30T05:13:18.630Z,11.45
2023-04-30T05:15:46.536Z,11.47
2023-04-30T05:18:14.404Z,11.50
2023-04-30T05:20:42.263Z,11.49
2023-04-30T05:23:10.211Z,11.47
2023-04-30T05:25:38.560Z,11.48
2023-04-30T05:28:07.916Z,11.49
2023-04-30T05:30:36.146Z,11.50
2023-04-30T05:33:04.098Z,11.50
2023-04-30T05:35:33.019Z,11.42
2023-04-30T05:38:00.939Z,11.47
2023-04-30T05:40:28.876Z,11.48
2023-04-30T05:42:57.631Z,11.47
2023-04-30T05:45:25.931Z,11.49
2023-04-30T05:47:53.973Z,11.52
2023-04-30T05:50:21.902Z,11.51
2023-04-30T05:52:49.758Z,11.54
2023-04-30T05:55:17.926Z,11.55
2023-04-30T05:57:45.789Z,11.57
2023-04-30T06:00:14.413Z,11.59
2023-04-30T06:02:42.569Z,11.62
2023-04-30T06:05:11.174Z,11.66
2023-04-30T06:07:39.356Z,11.67
2023-04-30T06:10:08.346Z,11.68
2023-04-30T06:12:36.493Z,11.67
2023-04-30T06:15:04.850Z,11.68
2023-04-30T06:17:32.910Z,11.70
2023-04-30T06:20:03.660Z,11.71
2023-04-30T06:22:32.046Z,11.74
2023-04-30T06:25:00.032Z,11.75
2023-04-30T06:27:30.867Z,11.76
2023-04-30T06:29:58.831Z,11.78
2023-04-30T06:32:26.811Z,11.77
2023-04-30T06:34:54.854Z,11.78
2023-04-30T06:37:22.872Z,11.79
2023-04-30T06:39:50.991Z,11.83
2023-04-30T06:42:18.935Z,11.89
2023-04-30T06:44:48.588Z,11.96
2023-04-30T06:47:16.551Z,11.99
2023-04-30T06:49:44.566Z,12.06
2023-04-30T06:52:12.455Z,12.12
2023-04-30T06:54:40.399Z,12.22
2023-04-30T06:57:08.523Z,12.29
2023-04-30T06:59:36.421Z,12.38
2023-04-30T07:02:05.550Z,12.44
2023-04-30T07:04:33.419Z,12.48
2023-04-30T07:07:03.416Z,12.51
2023-04-30T07:09:31.571Z,12.54
2023-04-30T07:12:00.076Z,12.58
2023-04-30T07:14:28.282Z,12.61
2023-04-30T07:16:57.694Z,12.64
2023-04-30T07:19:28.249Z,12.70
2023-04-30T07:21:56.209Z,12.76
2023-04-30T07:24:24.156Z,12.84
2023-04-30T07:26:52.251Z,12.96
2023-04-30T07:29:20.195Z,13.02
2023-04-30T07:31:48.129Z,13.09
2023-04-30T07:34:16.021Z,13.21
2023-04-30T07:36:44.025Z,13.32
2023-04-30T07:39:13.063Z,13.40
2023-04-30T07:41:40.934Z,13.49
2023-04-30T07:44:08.811Z,13.60
2023-04-30T07:46:37.896Z,13.66
2023-04-30T07:49:05.938Z,13.67
2023-04-30T07:51:34.337Z,13.67
2023-04-30T07:54:02.201Z,13.66
2023-04-30T07:56:30.218Z,13.71
2023-04-30T07:58:58.075Z,13.77
2023-04-30T08:01:26.018Z,13.77
2023-04-30T08:03:54.000Z,13.78
2023-04-30T08:06:22.532Z,13.82
2023-04-30T08:08:50.596Z,13.89
2023-04-30T08:11:18.482Z,13.96
2023-04-30T08:13:46.617Z,14.05
2023-04-30T08:16:14.658Z,14.12
2023-04-30T08:18:46.081Z,14.21
2023-04-30T08:21:14.906Z,14.32
2023-04-30T08:23:42.885Z,14.36
2023-04-30T08:26:10.945Z,14.42
2023-04-30T08:28:38.896Z,14.52
2023-04-30T08:31:07.001Z,14.64
2023-04-30T08:33:35.037Z,14.72
2023-04-30T08:36:03.014Z,14.78
2023-04-30T08:38:30.940Z,14.88
2023-04-30T08:41:10.444Z,14.99
2023-04-30T08:43:38.890Z,15.04
2023-04-30T08:46:07.543Z,15.12
2023-04-30T08:48:36.065Z,15.21
2023-04-30T08:51:05.247Z,15.31
2023-04-30T08:53:36.945Z,15.45
2023-04-30T08:56:05.991Z,15.53
2023-04-30T08:58:34.225Z,15.46
2023-04-30T09:01:03.791Z,15.40
2023-04-30T09:03:32.882Z,15.49
2023-04-30T09:06:00.986Z,15.56
2023-04-30T09:08:48.204Z,15.60
2023-04-30T09:11:32.186Z,15.68
2023-04-30T09:14:01.792Z,15.74
2023-04-30T09:16:34.152Z,15.81
2023-04-30T09:19:02.318Z,15.84
2023-04-30T09:21:34.384Z,15.83
2023-04-30T09:24:07.021Z,15.86
2023-04-30T09:26:37.695Z,15.90
2023-04-30T09:29:09.833Z,15.92
2023-04-30T09:31:39.475Z,15.95
2023-04-30T09:34:07.801Z,16.01
2023-04-30T09:36:36.522Z,16.04
2023-04-30T09:39:11.457Z,16.11
2023-04-30T09:41:40.961Z,16.20
2023-04-30T09:44:08.956Z,16.31
2023-04-30T09:46:40.014Z,16.40
2023-04-30T09:49:08.943Z,16.43
2023-04-30T09:51:37.017Z,16.52
2023-04-30T09:54:06.091Z,16.56
2023-04-30T09:56:39.110Z,16.57
2023-04-30T09:59:10.206Z,16.57
2023-04-30T10:01:40.970Z,16.53
2023-04-30T10:04:09.328Z,16.58
2023-04-30T10:06:37.947Z,16.70
2023-04-30T10:09:07.560Z,16.79
2023-04-30T10:11:38.879Z,16.90
2023-04-30T10:14:13.577Z,16.97
2023-04-30T10:17:05.694Z,16.97
2023-04-30T10:19:35.881Z,16.97
2023-04-30T10:22:04.110Z,17.06
2023-04-30T10:24:32.495Z,17.13
2023-04-30T10:27:01.357Z,17.12
2023-04-30T10:29:29.317Z,17.19
2023-04-30T10:31:58.691Z,17.22
2023-04-30T10:35:12.313Z,17.23
2023-04-30T10:37:47.571Z,17.26
2023-04-30T10:40:16.381Z,17.33
2023-04-30T10:42:56.325Z,17.31
2023-04-30T10:45:42.796Z,17.34
2023-04-30T10:48:11.509Z,17.37
2023-04-30T10:50:46.090Z,17.47
2023-04-30T10:53:19.243Z,17.48
2023-04-30T10:55:58.555Z,17.52
2023-04-30T10:58:33.549Z,17.60
2023-04-30T11:01:19.836Z,17.62
2023-04-30T11:04:07.645Z,17.61
2023-04-30T11:06:57.452Z,17.63
2023-04-30T11:09:45.858Z,17.68
2023-04-30T11:12:23.237Z,17.64
2023-04-30T11:14:51.748Z,17.69
2023-04-30T11:17:25.312Z,17.75
2023-04-30T11:19:55.221Z,17.75
2023-04-30T11:22:25.806Z,17.79
2023-04-30T11:25:10.965Z,17.73
2023-04-30T11:27:41.359Z,17.75
2023-04-30T11:30:17.508Z,17.74
2023-04-30T11:32:48.727Z,17.76
2023-04-30T11:35:20.806Z,17.75
2023-04-30T11:37:50.202Z,17.77
2023-04-30T11:40:18.116Z,17.75
2023-04-30T11:42:46.633Z,17.65
2023-04-30T11:45:18.805Z,17.67
2023-04-30T11:47:49.372Z,17.70
2023-04-30T11:50:19.572Z,17.72
2023-04-30T11:52:52.066Z,17.79
2023-04-30T11:55:22.207Z,17.77
2023-04-30T11:57:52.855Z,17.82
2023-04-30T12:00:22.917Z,17.95
2023-04-30T12:02:51.675Z,17.99
2023-04-30T12:05:22.322Z,17.98
2023-04-30T12:07:56.467Z,18.12
2023-04-30T12:10:26.032Z,18.17
2023-04-30T12:12:55.924Z,18.24
2023-04-30T12:15:27.824Z,18.29
2023-04-30T12:18:00.313Z,18.31
2023-04-30T12:20:30.430Z,18.34
2023-04-30T12:22:59.510Z,18.27
2023-04-30T12:25:30.250Z,18.32
2023-04-30T12:28:01.107Z,18.32
2023-04-30T12:30:29.197Z,18.38
2023-04-30T12:33:01.380Z,18.46
2023-04-30T12:35:32.261Z,18.51
2023-04-30T12:38:10.911Z,18.56
2023-04-30T12:40:39.214Z,18.57
2023-04-30T12:43:09.334Z,18.61
2023-04-30T12:45:54.196Z,18.67
2023-04-30T12:48:25.036Z,18.69
2023-04-30T12:50:54.625Z,18.75
2023-04-30T12:53:23.317Z,18.80
2023-04-30T12:56:13.666Z,18.82
2023-04-30T12:58:41.975Z,18.84
2023-04-30T13:01:14.493Z,18.80
2023-04-30T13:03:42.843Z,18.74
2023-04-30T13:06:11.824Z,18.74
2023-04-30T13:08:50.264Z,18.75
2023-04-30T13:11:27.008Z,18.76
2023-04-30T13:13:56.898Z,18.73
2023-04-30T13:16:26.108Z,18.71
2023-04-30T13:18:54.361Z,18.72
2023-04-30T13:21:22.843Z,18.76
2023-04-30T13:23:54.316Z,18.77
2023-04-30T13:26:24.347Z,18.73
2023-04-30T13:28:52.455Z,18.72
2023-04-30T13:31:20.857Z,18.71
2023-04-30T13:33:49.080Z,18.66
2023-04-30T13:36:17.099Z,18.62
2023-04-30T13:38:44.964Z,18.60
2023-04-30T13:41:13.009Z,18.59
2023-04-30T13:43:43.417Z,18.60
2023-04-30T13:46:11.599Z,18.52
2023-04-30T13:48:39.753Z,18.51
2023-04-30T13:51:07.834Z,18.57
2023-04-30T13:53:36.997Z,18.60
2023-04-30T13:56:05.008Z,18.48
2023-04-30T13:58:32.985Z,18.44
2023-04-30T14:01:01.080Z,18.40
2023-04-30T14:03:29.137Z,18.40
2023-04-30T14:05:57.090Z,18.39
2023-04-30T14:08:25.200Z,18.39
2023-04-30T14:10:53.240Z,18.41
2023-04-30T14:13:21.143Z,18.41
2023-04-30T14:15:49.748Z,18.39
2023-04-30T14:18:17.649Z,18.40
2023-04-30T14:20:45.594Z,18.42
2023-04-30T14:23:14.030Z,18.42
2023-04-30T14:25:42.421Z,18.39
2023-04-30T14:28:10.358Z,18.37
2023-04-30T14:30:38.664Z,18.31
2023-04-30T14:33:06.917Z,18.26
2023-04-30T14:35:35.063Z,18.24
2023-04-30T14:38:03.028Z,18.20
2023-04-30T14:40:31.118Z,18.15
2023-04-30T14:42:59.004Z,18.13
2023-04-30T14:45:29.750Z,18.13
2023-04-30T14:47:57.859Z,18.07
2023-04-30T14:50:25.869Z,18.04
2023-04-30T14:52:53.795Z,17.99
2023-04-30T14:55:21.874Z,18.00
2023-04-30T14:57:49.862Z,17.98
2023-04-30T15:00:18.178Z,17.96
2023-04-30T15:02:46.203Z,17.92
2023-04-30T15:05:14.308Z,17.85
2023-04-30T15:07:42.360Z,17.80
2023-04-30T15:10:10.924Z,17.75
2023-04-30T15:12:38.865Z,17.68
2023-04-30T15:15:08.323Z,17.64
2023-04-30T15:17:38.333Z,17.56
2023-04-30T15:20:07.920Z,17.53
2023-04-30T15:22:35.986Z,17.50
2023-04-30T15:25:04.151Z,17.43
2023-04-30T15:27:33.787Z,17.39
2023-04-30T15:30:02.065Z,17.32
2023-04-30T15:32:30.088Z,17.32
2023-04-30T15:34:58.088Z,17.26
2023-04-30T15:37:26.054Z,17.19
2023-04-30T15:39:54.317Z,17.15
2023-04-30T15:42:22.389Z,17.12
2023-04-30T15:44:50.224Z,17.09
2023-04-30T15:47:18.217Z,17.06
2023-04-30T15:49:46.304Z,17.04
2023-04-30T15:52:14.324Z,17.02
2023-04-30T15:54:42.250Z,17.01
2023-04-30T15:57:10.175Z,16.98
2023-04-30T15:59:38.183Z,16.96
2023-04-30T16:02:06.134Z,16.94
2023-04-30T16:04:34.066Z,16.92
2023-04-30T16:07:02.613Z,16.90
2023-04-30T16:09:31.339Z,16.86
2023-04-30T16:12:00.220Z,16.83
2023-04-30T16:14:28.301Z,16.79
2023-04-30T16:16:56.415Z,16.74
2023-04-30T16:19:24.451Z,16.72
2023-04-30T16:21:52.417Z,16.69
2023-04-30T16:24:20.545Z,16.69
2023-04-30T16:26:48.390Z,16.69
2023-04-30T16:29:16.602Z,16.68
2023-04-30T16:31:45.223Z,16.67
2023-04-30T16:34:13.540Z,16.65
2023-04-30T16:36:42.109Z,16.62
2023-04-30T16:39:10.196Z,16.57
2023-04-30T16:41:39.281Z,16.53
2023-04-30T16:44:07.259Z,16.52
2023-04-30T16:46:36.567Z,16.48
2023-04-30T16:49:05.266Z,16.44
2023-04-30T16:51:34.454Z,16.41
2023-04-30T16:54:02.337Z,16.39
2023-04-30T16:56:30.324Z,16.37
2023-04-30T16:58:58.329Z,16.32
2023-04-30T17:01:26.464Z,16.29
2023-04-30T17:03:55.572Z,16.28
2023-04-30T17:06:23.937Z,16.28
2023-04-30T17:08:51.876Z,16.26
2023-04-30T17:11:22.478Z,16.21
2023-04-30T17:13:50.461Z,16.21
2023-04-30T17:16:18.557Z,16.19
2023-04-30T17:18:46.494Z,16.18
2023-04-30T17:21:14.540Z,16.16
2023-04-30T17:23:42.471Z,16.14
2023-04-30T17:26:10.885Z,16.13
2023-04-30T17:28:38.964Z,16.11
2023-04-30T17:31:08.679Z,16.11
2023-04-30T17:33:36.763Z,16.08
2023-04-30T17:36:04.673Z,16.05
2023-04-30T17:38:32.660Z,16.04
2023-04-30T17:41:00.654Z,16.03
2023-04-30T17:43:29.056Z,16.00
2023-04-30T17:45:58.581Z,16.00
2023-04-30T17:48:26.499Z,15.97
2023-04-30T17:50:54.624Z,15.96
2023-04-30T17:53:22.604Z,15.94
2023-04-30T17:55:50.530Z,15.93
2023-04-30T17:58:18.779Z,15.94
2023-04-30T18:00:47.015Z,15.93
2023-04-30T18:03:15.020Z,15.90
2023-04-30T18:05:43.686Z,15.88
2023-04-30T18:08:11.645Z,15.87
2023-04-30T18:10:39.624Z,15.86
2023-04-30T18:13:07.690Z,15.84
2023-04-30T18:15:35.661Z,15.85
2023-04-30T18:18:03.669Z,15.83
2023-04-30T18:20:31.617Z,15.83
2023-04-30T18:22:59.573Z,15.82
2023-04-30T18:25:27.762Z,15.80
2023-04-30T18:27:55.635Z,15.76
2023-04-30T18:30:23.519Z,15.71
2023-04-30T18:32:51.545Z,15.69
2023-04-30T18:35:19.607Z,15.66
2023-04-30T18:37:47.709Z,15.63
2023-04-30T18:40:15.677Z,15.62
2023-04-30T18:42:43.628Z,15.60
2023-04-30T18:45:13.119Z,15.58
2023-04-30T18:47:41.252Z,15.56
2023-04-30T18:50:12.024Z,15.54
2023-04-30T18:52:40.467Z,15.53
2023-04-30T18:55:09.041Z,15.52
2023-04-30T18:57:37.314Z,15.49
2023-04-30T19:00:08.077Z,15.47
2023-04-30T19:02:36.354Z,15.47
2023-04-30T19:05:04.880Z,15.44
2023-04-30T19:07:32.798Z,15.40
2023-04-30T19:10:00.754Z,15.38
2023-04-30T19:12:28.712Z,15.33
2023-04-30T19:14:56.667Z,15.35
2023-04-30T19:17:24.896Z,15.33
2023-04-30T19:19:53.097Z,15.31
2023-04-30T19:22:21.327Z,15.28
2023-04-30T19:24:49.369Z,15.27
2023-04-30T19:27:17.445Z,15.23
2023-04-30T19:29:45.580Z,15.22
2023-04-30T19:32:13.624Z,15.21
2023-04-30T19:34:41.932Z,15.18
2023-04-30T19:37:09.978Z,15.15
2023-04-30T19:39:38.200Z,15.14
2023-04-30T19:42:07.317Z,15.12
2023-04-30T19:44:35.533Z,15.10
2023-04-30T19:47:03.646Z,15.06
2023-04-30T19:49:31.772Z,15.02
2023-04-30T19:51:59.874Z,14.98
2023-04-30T19:54:27.767Z,14.99
2023-04-30T19:56:55.945Z,14.99
2023-04-30T19:59:23.889Z,14.98
2023-04-30T20:01:53.764Z,14.97
2023-04-30T20:04:21.978Z,14.93
2023-04-30T20:06:53.233Z,14.93
2023-04-30T20:09:21.248Z,14.90
2023-04-30T20:11:51.084Z,14.89
2023-04-30T20:14:20.020Z,14.86
2023-04-30T20:16:53.557Z,14.83
2023-04-30T20:19:26.615Z,14.81
2023-04-30T20:21:54.985Z,14.78
2023-04-30T20:24:23.928Z,14.76
2023-04-30T20:26:51.974Z,14.72
2023-04-30T20:29:21.938Z,14.71
2023-04-30T20:31:50.009Z,14.68
2023-04-30T20:34:18.181Z,14.64
2023-04-30T20:36:46.361Z,14.62
2023-04-30T20:39:14.857Z,14.59
2023-04-30T20:41:42.854Z,14.56
2023-04-30T20:44:11.168Z,14.54
2023-04-30T20:46:39.687Z,14.51
2023-04-30T20:49:07.725Z,14.48
2023-04-30T20:51:35.675Z,14.47
2023-04-30T20:54:03.638Z,14.47
2023-04-30T20:56:32.701Z,14.43
2023-04-30T20:59:00.556Z,14.41
2023-04-30T21:01:29.061Z,14.42
2023-04-30T21:03:57.143Z,14.41
2023-04-30T21:06:25.110Z,14.41
2023-04-30T21:08:53.000Z,14.41
2023-04-30T21:11:21.907Z,14.38
2023-04-30T21:13:51.437Z,14.36
2023-04-30T21:16:20.022Z,14.28
2023-04-30T21:18:49.982Z,14.28
2023-04-30T21:21:18.316Z,14.26
2023-04-30T21:23:48.203Z,14.25
2023-04-30T21:26:16.741Z,14.23
2023-04-30T21:28:45.337Z,14.23
2023-04-30T21:31:13.406Z,14.22
2023-04-30T21:33:41.558Z,14.21
2023-04-30T21:36:09.431Z,14.17
2023-04-30T21:38:37.991Z,14.15
2023-04-30T21:41:06.316Z,14.13
2023-04-30T21:43:34.261Z,14.12
2023-04-30T21:46:05.329Z,14.09
2023-04-30T21:48:33.360Z,14.05
2023-04-30T21:51:01.709Z,14.04
2023-04-30T21:53:29.609Z,14.01
2023-04-30T21:55:58.502Z,14.01
2023-04-30T21:58:26.484Z,13.98
2023-04-30T22:00:56.148Z,13.93
2023-04-30T22:03:24.160Z,13.94
2023-04-30T22:05:52.230Z,13.93
2023-04-30T22:08:20.328Z,13.92
2023-04-30T22:10:49.675Z,13.89
2023-04-30T22:13:17.593Z,13.87
2023-04-30T22:15:48.376Z,13.86
2023-04-30T22:18:17.062Z,13.86
2023-04-30T22:20:45.017Z,13.85
2023-04-30T22:23:13.035Z,13.85
2023-04-30T22:25:40.990Z,13.84
2023-04-30T22:28:08.960Z,13.81
2023-04-30T22:30:37.829Z,13.80
2023-04-30T22:33:05.937Z,13.78
2023-04-30T22:35:39.297Z,13.77
2023-04-30T22:38:08.040Z,13.75
2023-04-30T22:40:39.746Z,13.73
2023-04-30T22:43:08.370Z,13.73
2023-04-30T22:45:39.576Z,13.71
2023-04-30T22:48:10.954Z,13.68
2023-04-30T22:50:39.563Z,13.65
2023-04-30T22:53:07.960Z,13.66
2023-04-30T22:55:37.097Z,13.63
2023-04-30T22:58:04.948Z,13.60
2023-04-30T23:00:32.941Z,13.59
2023-04-30T23:03:00.936Z,13.58
2023-04-30T23:05:28.834Z,13.58
2023-04-30T23:07:56.729Z,13.58
2023-04-30T23:10:24.634Z,13.59
2023-04-30T23:12:53.138Z,13.55
2023-04-30T23:15:21.027Z,13.57
2023-04-30T23:17:49.056Z,13.59
2023-04-30T23:20:17.323Z,13.58
2023-04-30T23:22:45.308Z,13.58
2023-04-30T23:25:13.606Z,13.59
2023-04-30T23:27:41.528Z,13.58
2023-04-30T23:30:11.015Z,13.58
2023-04-30T23:32:39.007Z,13.59
2023-04-30T23:35:09.082Z,13.60
2023-04-30T23:37:37.339Z,13.59
2023-04-30T23:40:08.646Z,13.59
2023-04-30T23:42:36.754Z,13.56
2023-04-30T23:45:05.117Z,13.56
2023-04-30T23:47:34.319Z,13.56
2023-04-30T23:50:02.306Z,13.55
2023-04-30T23:52:30.304Z,13.55
2023-04-30T23:54:58.643Z,13.53
2023-04-30T23:57:28.880Z,13.53
2023-04-30T23:59:57.400Z,13.51
